Terminal Aerodrome Forecast
Issued by NWS Buffalo, NY

Home | Current Version | Previous Version | Text Only | Print | Product List | Glossary On
Versions: 1 2 3 4 5 6 7 8 9 10 11 12 13 14 15 16 17 18 19 20 21 22 23 24
818
FTUS41 KBUF 281120
TAFROC
TAF
KROC 281120Z 2812/2912 22004KT P6SM SCT250
     FM281600 VRB04KT P6SM SCT050 BKN250
     FM281900 02006KT P6SM BKN050
     FM282300 07004KT P6SM BKN050
     FM290200 VRB03KT P6SM BKN070
     FM290600 20004KT P6SM BKN060=

USA.gov is the U.S. government's official web portal to all federal, state and local government web resources and services.